Terminal Aerodrome Forecast
Issued by NWS Atlanta, GA

Home | Current Version | Previous Version | Text Only | Print | Product List | Glossary On
Versions: 1 2 3 4 5 6 7 8 9 10 11 12 13 14 15 16 17 18
766
FTUS42 KFFC 240736 AAA
TAFMCN
TAF AMD
KMCN 240736Z 2408/2506 19005KT P6SM VCSH SCT005 BKN012
     FM240900 20004KT 5SM BR OVC004
     FM241400 21008KT P6SM SCT005 BKN012
     FM241600 21009KT 6SM SHRA OVC025
      TEMPO 2417/2421 VRB15G25KT 4SM TSRA BKN015CB
     FM242200 22010KT P6SM VCSH BKN050
     FM250100 25007KT P6SM SCT050 BKN100=

USA.gov is the U.S. government's official web portal to all federal, state and local government web resources and services.